sensor_id;sensor_type;location;lat;lon;timestamp;temperature;humidity
57026;DHT22;43961;52.940;6.834;2024-03-23T00:53:49;6.10;99.90
57026;DHT22;43961;52.940;6.834;2024-03-23T00:56:15;6.10;99.90
57026;DHT22;43961;52.940;6.834;2024-03-23T00:58:41;6.00;99.90
57026;DHT22;43961;52.940;6.834;2024-03-23T01:01:06;6.10;99.90
57026;DHT22;43961;52.940;6.834;2024-03-23T01:03:32;6.00;99.90
57026;DHT22;43961;52.940;6.834;2024-03-23T01:06:01;6.00;99.90
57026;DHT22;43961;52.940;6.834;2024-03-23T01:08:27;6.00;99.90
57026;DHT22;43961;52.940;6.834;2024-03-23T01:10:58;6.00;99.90
57026;DHT22;43961;52.940;6.834;2024-03-23T01:13:24;5.90;99.90
57026;DHT22;43961;52.940;6.834;2024-03-23T01:15:50;6.00;99.90
57026;DHT22;43961;52.940;6.834;2024-03-23T01:18:17;5.90;99.90
57026;DHT22;43961;52.940;6.834;2024-03-23T01:20:43;5.90;99.90
57026;DHT22;43961;52.940;6.834;2024-03-23T01:23:09;5.80;99.90
57026;DHT22;43961;52.940;6.834;2024-03-23T01:25:35;5.80;99.90
57026;DHT22;43961;52.940;6.834;2024-03-23T01:28:01;5.80;99.90
57026;DHT22;43961;52.940;6.834;2024-03-23T01:30:27;5.70;99.90
57026;DHT22;43961;52.940;6.834;2024-03-23T01:32:53;5.70;99.90
57026;DHT22;43961;52.940;6.834;2024-03-23T01:35:19;5.70;99.90
57026;DHT22;43961;52.940;6.834;2024-03-23T01:37:44;5.60;99.90
57026;DHT22;43961;52.940;6.834;2024-03-23T01:40:10;5.60;99.90
57026;DHT22;43961;52.940;6.834;2024-03-23T01:42:41;5.60;99.90
57026;DHT22;43961;52.940;6.834;2024-03-23T01:45:08;5.50;99.90
57026;DHT22;43961;52.940;6.834;2024-03-23T01:47:34;5.50;99.90
57026;DHT22;43961;52.940;6.834;2024-03-23T01:50:01;5.40;99.90
57026;DHT22;43961;52.940;6.834;2024-03-23T01:52:27;5.40;99.90
57026;DHT22;43961;52.940;6.834;2024-03-23T01:54:53;5.40;99.90
57026;DHT22;43961;52.940;6.834;2024-03-23T01:57:19;5.30;99.90
57026;DHT22;43961;52.940;6.834;2024-03-23T01:59:46;5.30;99.90
57026;DHT22;43961;52.940;6.834;2024-03-23T02:02:12;5.20;99.90
57026;DHT22;43961;52.940;6.834;2024-03-23T02:04:38;5.20;99.90
57026;DHT22;43961;52.940;6.834;2024-03-23T02:07:06;5.10;99.90
57026;DHT22;43961;52.940;6.834;2024-03-23T02:09:32;5.10;99.90
57026;DHT22;43961;52.940;6.834;2024-03-23T02:11:58;5.10;99.90
57026;DHT22;43961;52.940;6.834;2024-03-23T02:14:23;5.00;99.90
57026;DHT22;43961;52.940;6.834;2024-03-23T02:16:49;5.00;99.90
57026;DHT22;43961;52.940;6.834;2024-03-23T02:19:14;4.90;99.90
57026;DHT22;43961;52.940;6.834;2024-03-23T02:21:40;4.90;99.90
57026;DHT22;43961;52.940;6.834;2024-03-23T02:24:06;4.80;99.90
57026;DHT22;43961;52.940;6.834;2024-03-23T02:26:32;4.80;99.90
57026;DHT22;43961;52.940;6.834;2024-03-23T02:28:58;4.70;99.90
57026;DHT22;43961;52.940;6.834;2024-03-23T02:31:24;4.70;99.90
57026;DHT22;43961;52.940;6.834;2024-03-23T02:33:49;4.60;99.90
57026;DHT22;43961;52.940;6.834;2024-03-23T02:36:15;4.60;99.90
57026;DHT22;43961;52.940;6.834;2024-03-23T02:38:40;4.60;99.90
57026;DHT22;43961;52.940;6.834;2024-03-23T02:41:06;4.60;99.90
57026;DHT22;43961;52.940;6.834;2024-03-23T02:43:32;4.50;99.90
57026;DHT22;43961;52.940;6.834;2024-03-23T02:45:57;4.50;99.90
57026;DHT22;43961;52.940;6.834;2024-03-23T02:48:23;4.50;99.90
57026;DHT22;43961;52.940;6.834;2024-03-23T02:50:49;4.40;99.90
57026;DHT22;43961;52.940;6.834;2024-03-23T02:53:15;4.40;99.90
57026;DHT22;43961;52.940;6.834;2024-03-23T02:55:41;4.30;99.90
57026;DHT22;43961;52.940;6.834;2024-03-23T02:58:07;4.30;99.90
57026;DHT22;43961;52.940;6.834;2024-03-23T03:00:32;4.30;99.90
57026;DHT22;43961;52.940;6.834;2024-03-23T03:02:58;4.30;99.90
57026;DHT22;43961;52.940;6.834;2024-03-23T03:05:23;4.20;99.90
57026;DHT22;43961;52.940;6.834;2024-03-23T03:07:49;4.20;99.90
57026;DHT22;43961;52.940;6.834;2024-03-23T03:10:15;4.20;99.90
57026;DHT22;43961;52.940;6.834;2024-03-23T03:12:41;4.10;99.90
57026;DHT22;43961;52.940;6.834;2024-03-23T03:15:08;4.10;99.90
57026;DHT22;43961;52.940;6.834;2024-03-23T03:17:34;4.10;99.90
57026;DHT22;43961;52.940;6.834;2024-03-23T03:20:00;4.10;99.90
57026;DHT22;43961;52.940;6.834;2024-03-23T03:22:28;4.10;99.90
57026;DHT22;43961;52.940;6.834;2024-03-23T03:24:54;4.10;99.90
57026;DHT22;43961;52.940;6.834;2024-03-23T03:27:19;4.10;99.90
57026;DHT22;43961;52.940;6.834;2024-03-23T03:29:45;4.00;99.90
57026;DHT22;43961;52.940;6.834;2024-03-23T03:32:11;4.00;99.90
57026;DHT22;43961;52.940;6.834;2024-03-23T03:34:37;4.00;99.90
57026;DHT22;43961;52.940;6.834;2024-03-23T03:37:02;4.00;99.90
57026;DHT22;43961;52.940;6.834;2024-03-23T03:39:28;4.00;99.90
57026;DHT22;43961;52.940;6.834;2024-03-23T03:41:54;4.00;99.90
57026;DHT22;43961;52.940;6.834;2024-03-23T03:44:19;4.00;99.90
57026;DHT22;43961;52.940;6.834;2024-03-23T03:46:45;3.90;99.90
57026;DHT22;43961;52.940;6.834;2024-03-23T03:49:10;3.90;99.90
57026;DHT22;43961;52.940;6.834;2024-03-23T03:51:36;3.90;99.90
57026;DHT22;43961;52.940;6.834;2024-03-23T03:54:03;3.80;99.90
57026;DHT22;43961;52.940;6.834;2024-03-23T03:56:28;3.90;99.90
57026;DHT22;43961;52.940;6.834;2024-03-23T03:58:54;3.80;99.90
57026;DHT22;43961;52.940;6.834;2024-03-23T04:01:19;3.80;99.90
57026;DHT22;43961;52.940;6.834;2024-03-23T04:03:45;3.80;99.90
57026;DHT22;43961;52.940;6.834;2024-03-23T04:06:12;3.80;99.90
57026;DHT22;43961;52.940;6.834;2024-03-23T04:08:43;3.80;99.90
57026;DHT22;43961;52.940;6.834;2024-03-23T04:11:09;3.70;99.90
57026;DHT22;43961;52.940;6.834;2024-03-23T04:13:34;3.70;99.90
57026;DHT22;43961;52.940;6.834;2024-03-23T04:16:00;3.70;99.90
57026;DHT22;43961;52.940;6.834;2024-03-23T04:18:26;3.70;99.90
57026;DHT22;43961;52.940;6.834;2024-03-23T04:20:51;3.70;99.90
57026;DHT22;43961;52.940;6.834;2024-03-23T04:23:17;3.60;99.90
57026;DHT22;43961;52.940;6.834;2024-03-23T04:25:44;3.60;99.90
57026;DHT22;43961;52.940;6.834;2024-03-23T04:28:10;3.60;99.90
57026;DHT22;43961;52.940;6.834;2024-03-23T04:30:35;3.60;99.90
57026;DHT22;43961;52.940;6.834;2024-03-23T04:33:02;3.60;99.90
57026;DHT22;43961;52.940;6.834;2024-03-23T04:35:28;3.60;99.90
57026;DHT22;43961;52.940;6.834;2024-03-23T04:37:54;3.60;99.90
57026;DHT22;43961;52.940;6.834;2024-03-23T04:40:22;3.60;99.90
57026;DHT22;43961;52.940;6.834;2024-03-23T04:42:47;3.50;99.90
57026;DHT22;43961;52.940;6.834;2024-03-23T04:45:13;3.50;99.90
57026;DHT22;43961;52.940;6.834;2024-03-23T04:47:39;3.50;99.90
57026;DHT22;43961;52.940;6.834;2024-03-23T04:50:05;3.50;99.90
57026;DHT22;43961;52.940;6.834;2024-03-23T04:52:31;3.40;99.90
57026;DHT22;43961;52.940;6.834;2024-03-23T04:54:57;3.50;99.90
57026;DHT22;43961;52.940;6.834;2024-03-23T04:57:22;3.40;99.90
57026;DHT22;43961;52.940;6.834;2024-03-23T04:59:48;3.40;99.90
57026;DHT22;43961;52.940;6.834;2024-03-23T05:02:14;3.40;99.90
57026;DHT22;43961;52.940;6.834;2024-03-23T05:04:40;3.40;99.90
57026;DHT22;43961;52.940;6.834;2024-03-23T05:07:06;3.40;99.90
57026;DHT22;43961;52.940;6.834;2024-03-23T05:09:32;3.40;99.90
57026;DHT22;43961;52.940;6.834;2024-03-23T05:12:01;3.40;99.90
57026;DHT22;43961;52.940;6.834;2024-03-23T05:14:27;3.40;99.90
57026;DHT22;43961;52.940;6.834;2024-03-23T05:16:53;3.30;99.90
57026;DHT22;43961;52.940;6.834;2024-03-23T05:19:18;3.30;99.90
57026;DHT22;43961;52.940;6.834;2024-03-23T05:21:44;3.30;99.90
57026;DHT22;43961;52.940;6.834;2024-03-23T05:24:11;3.40;99.90
57026;DHT22;43961;52.940;6.834;2024-03-23T05:26:37;3.30;99.90
57026;DHT22;43961;52.940;6.834;2024-03-23T05:29:03;3.30;99.90
57026;DHT22;43961;52.940;6.834;2024-03-23T05:31:30;3.30;99.90
57026;DHT22;43961;52.940;6.834;2024-03-23T05:33:56;3.30;99.90
57026;DHT22;43961;52.940;6.834;2024-03-23T05:36:22;3.30;99.90
57026;DHT22;43961;52.940;6.834;2024-03-23T05:38:49;3.30;99.90
57026;DHT22;43961;52.940;6.834;2024-03-23T05:41:15;3.30;99.90
57026;DHT22;43961;52.940;6.834;2024-03-23T05:43:40;3.30;99.90
57026;DHT22;43961;52.940;6.834;2024-03-23T05:46:06;3.40;99.90
57026;DHT22;43961;52.940;6.834;2024-03-23T05:48:33;3.30;99.90
57026;DHT22;43961;52.940;6.834;2024-03-23T05:50:59;3.30;99.90
57026;DHT22;43961;52.940;6.834;2024-03-23T05:53:25;3.30;99.90
57026;DHT22;43961;52.940;6.834;2024-03-23T05:56:00;3.40;99.90
57026;DHT22;43961;52.940;6.834;2024-03-23T05:58:26;3.40;99.90
57026;DHT22;43961;52.940;6.834;2024-03-23T06:00:57;3.40;99.90
57026;DHT22;43961;52.940;6.834;2024-03-23T06:03:24;3.40;99.90
57026;DHT22;43961;52.940;6.834;2024-03-23T06:05:51;3.40;99.90
57026;DHT22;43961;52.940;6.834;2024-03-23T06:08:16;3.50;99.90
57026;DHT22;43961;52.940;6.834;2024-03-23T06:10:43;3.60;99.90
57026;DHT22;43961;52.940;6.834;2024-03-23T06:13:08;3.60;99.90
57026;DHT22;43961;52.940;6.834;2024-03-23T06:15:34;3.70;99.90
57026;DHT22;43961;52.940;6.834;2024-03-23T06:18:03;3.70;99.90
57026;DHT22;43961;52.940;6.834;2024-03-23T06:20:29;3.80;99.90
57026;DHT22;43961;52.940;6.834;2024-03-23T06:22:55;3.90;99.90
57026;DHT22;43961;52.940;6.834;2024-03-23T06:25:20;4.00;99.90
57026;DHT22;43961;52.940;6.834;2024-03-23T06:27:46;4.10;99.90
57026;DHT22;43961;52.940;6.834;2024-03-23T06:30:12;4.20;99.90
57026;DHT22;43961;52.940;6.834;2024-03-23T06:32:38;4.40;99.90
57026;DHT22;43961;52.940;6.834;2024-03-23T06:35:03;4.50;99.90
57026;DHT22;43961;52.940;6.834;2024-03-23T06:37:34;4.70;99.90
57026;DHT22;43961;52.940;6.834;2024-03-23T06:40:01;4.80;99.90
57026;DHT22;43961;52.940;6.834;2024-03-23T06:42:26;4.80;99.90
57026;DHT22;43961;52.940;6.834;2024-03-23T06:44:52;4.90;99.90
57026;DHT22;43961;52.940;6.834;2024-03-23T06:47:17;4.90;99.90
57026;DHT22;43961;52.940;6.834;2024-03-23T06:49:43;5.00;99.90
57026;DHT22;43961;52.940;6.834;2024-03-23T06:52:09;4.90;99.90
57026;DHT22;43961;52.940;6.834;2024-03-23T06:54:34;4.90;99.90
57026;DHT22;43961;52.940;6.834;2024-03-23T06:57:00;4.80;99.90
57026;DHT22;43961;52.940;6.834;2024-03-23T06:59:26;4.90;99.90
57026;DHT22;43961;52.940;6.834;2024-03-23T07:01:53;4.80;99.90
57026;DHT22;43961;52.940;6.834;2024-03-23T07:04:18;4.80;99.90
57026;DHT22;43961;52.940;6.834;2024-03-23T07:06:45;4.90;99.90
57026;DHT22;43961;52.940;6.834;2024-03-23T07:09:11;4.80;99.90
57026;DHT22;43961;52.940;6.834;2024-03-23T07:11:37;4.80;99.90
57026;DHT22;43961;52.940;6.834;2024-03-23T07:14:02;4.90;99.90
57026;DHT22;43961;52.940;6.834;2024-03-23T07:16:28;4.90;99.90
57026;DHT22;43961;52.940;6.834;2024-03-23T07:18:54;5.00;99.90
57026;DHT22;43961;52.940;6.834;2024-03-23T07:21:21;5.00;99.90
57026;DHT22;43961;52.940;6.834;2024-03-23T07:23:47;5.00;99.90
57026;DHT22;43961;52.940;6.834;2024-03-23T07:26:13;5.00;99.90
57026;DHT22;43961;52.940;6.834;2024-03-23T07:28:39;5.00;99.90
57026;DHT22;43961;52.940;6.834;2024-03-23T07:31:10;5.10;99.90
57026;DHT22;43961;52.940;6.834;2024-03-23T07:33:41;5.00;99.90
57026;DHT22;43961;52.940;6.834;2024-03-23T07:36:06;5.10;99.90
57026;DHT22;43961;52.940;6.834;2024-03-23T07:38:32;5.10;99.90
57026;DHT22;43961;52.940;6.834;2024-03-23T07:41:07;5.10;99.90
57026;DHT22;43961;52.940;6.834;2024-03-23T07:43:33;5.20;99.90
57026;DHT22;43961;52.940;6.834;2024-03-23T07:45:59;5.30;99.90
57026;DHT22;43961;52.940;6.834;2024-03-23T07:48:25;5.50;99.90
57026;DHT22;43961;52.940;6.834;2024-03-23T07:53:24;5.90;99.90
57026;DHT22;43961;52.940;6.834;2024-03-23T07:55:57;6.20;99.90
57026;DHT22;43961;52.940;6.834;2024-03-23T07:58:23;6.30;99.90
57026;DHT22;43961;52.940;6.834;2024-03-23T08:00:49;6.30;99.90
57026;DHT22;43961;52.940;6.834;2024-03-23T08:03:15;6.40;99.90
57026;DHT22;43961;52.940;6.834;2024-03-23T08:05:40;6.30;99.90
57026;DHT22;43961;52.940;6.834;2024-03-23T08:08:06;6.30;99.90
57026;DHT22;43961;52.940;6.834;2024-03-23T08:10:32;6.30;99.90
57026;DHT22;43961;52.940;6.834;2024-03-23T08:12:57;6.30;99.90
57026;DHT22;43961;52.940;6.834;2024-03-23T08:15:25;6.40;99.90
57026;DHT22;43961;52.940;6.834;2024-03-23T08:17:51;6.40;99.90
57026;DHT22;43961;52.940;6.834;2024-03-23T08:20:17;6.50;99.90
57026;DHT22;43961;52.940;6.834;2024-03-23T08:22:43;6.60;99.90
57026;DHT22;43961;52.940;6.834;2024-03-23T08:25:08;6.70;99.90
57026;DHT22;43961;52.940;6.834;2024-03-23T08:27:34;6.80;99.90
57026;DHT22;43961;52.940;6.834;2024-03-23T08:30:00;6.80;99.90
57026;DHT22;43961;52.940;6.834;2024-03-23T08:32:25;6.80;99.90
57026;DHT22;43961;52.940;6.834;2024-03-23T08:34:52;6.70;99.90
57026;DHT22;43961;52.940;6.834;2024-03-23T08:37:17;6.60;99.90
57026;DHT22;43961;52.940;6.834;2024-03-23T08:39:43;6.60;99.90
57026;DHT22;43961;52.940;6.834;2024-03-23T08:42:09;6.60;99.90
57026;DHT22;43961;52.940;6.834;2024-03-23T08:44:34;6.60;99.90
57026;DHT22;43961;52.940;6.834;2024-03-23T08:47:01;6.50;99.90
57026;DHT22;43961;52.940;6.834;2024-03-23T08:49:27;6.40;99.90
57026;DHT22;43961;52.940;6.834;2024-03-23T08:51:53;6.40;99.90
57026;DHT22;43961;52.940;6.834;2024-03-23T08:54:19;6.40;99.90
57026;DHT22;43961;52.940;6.834;2024-03-23T08:56:46;6.40;99.90
57026;DHT22;43961;52.940;6.834;2024-03-23T08:59:11;6.40;99.90
57026;DHT22;43961;52.940;6.834;2024-03-23T09:01:37;6.60;99.90
57026;DHT22;43961;52.940;6.834;2024-03-23T09:04:03;6.70;99.90
57026;DHT22;43961;52.940;6.834;2024-03-23T09:06:29;6.90;99.90
57026;DHT22;43961;52.940;6.834;2024-03-23T09:08:55;6.90;99.90
57026;DHT22;43961;52.940;6.834;2024-03-23T09:11:21;7.00;99.90
57026;DHT22;43961;52.940;6.834;2024-03-23T09:13:46;7.20;99.90
57026;DHT22;43961;52.940;6.834;2024-03-23T09:16:12;7.40;99.90
57026;DHT22;43961;52.940;6.834;2024-03-23T09:18:38;7.60;99.90
57026;DHT22;43961;52.940;6.834;2024-03-23T09:21:10;7.80;99.90
57026;DHT22;43961;52.940;6.834;2024-03-23T09:23:36;8.10;99.90
57026;DHT22;43961;52.940;6.834;2024-03-23T09:26:05;8.40;99.90
57026;DHT22;43961;52.940;6.834;2024-03-23T09:28:33;8.60;99.90
57026;DHT22;43961;52.940;6.834;2024-03-23T09:31:06;8.90;99.90
57026;DHT22;43961;52.940;6.834;2024-03-23T09:33:41;9.00;99.90
57026;DHT22;43961;52.940;6.834;2024-03-23T09:36:07;9.10;99.90
57026;DHT22;43961;52.940;6.834;2024-03-23T09:38:34;9.00;99.90
57026;DHT22;43961;52.940;6.834;2024-03-23T09:40:59;8.90;99.90
57026;DHT22;43961;52.940;6.834;2024-03-23T09:43:25;8.80;99.90
57026;DHT22;43961;52.940;6.834;2024-03-23T09:45:51;8.70;99.90
57026;DHT22;43961;52.940;6.834;2024-03-23T09:48:17;8.50;99.90
57026;DHT22;43961;52.940;6.834;2024-03-23T09:50:44;8.40;99.90
57026;DHT22;43961;52.940;6.834;2024-03-23T09:53:14;8.30;99.90
57026;DHT22;43961;52.940;6.834;2024-03-23T09:55:44;8.20;99.90
57026;DHT22;43961;52.940;6.834;2024-03-23T09:58:15;8.40;99.90
57026;DHT22;43961;52.940;6.834;2024-03-23T10:00:41;8.50;99.90
57026;DHT22;43961;52.940;6.834;2024-03-23T10:03:06;8.80;99.90
57026;DHT22;43961;52.940;6.834;2024-03-23T10:05:33;9.00;99.90
57026;DHT22;43961;52.940;6.834;2024-03-23T10:08:00;9.40;99.90
57026;DHT22;43961;52.940;6.834;2024-03-23T10:10:42;9.50;99.90
57026;DHT22;43961;52.940;6.834;2024-03-23T10:13:08;9.60;99.90
57026;DHT22;43961;52.940;6.834;2024-03-23T10:15:36;9.50;99.90
57026;DHT22;43961;52.940;6.834;2024-03-23T10:18:20;9.40;99.90
57026;DHT22;43961;52.940;6.834;2024-03-23T10:20:52;9.20;99.90
57026;DHT22;43961;52.940;6.834;2024-03-23T10:23:35;9.10;99.90
57026;DHT22;43961;52.940;6.834;2024-03-23T10:26:21;8.80;99.90
57026;DHT22;43961;52.940;6.834;2024-03-23T10:31:19;8.60;99.90
57026;DHT22;43961;52.940;6.834;2024-03-23T10:33:46;8.50;99.90
57026;DHT22;43961;52.940;6.834;2024-03-23T10:36:12;8.40;99.90
57026;DHT22;43961;52.940;6.834;2024-03-23T10:38:40;8.30;99.90
57026;DHT22;43961;52.940;6.834;2024-03-23T10:41:08;8.20;99.90
57026;DHT22;43961;52.940;6.834;2024-03-23T10:43:35;8.20;99.90
57026;DHT22;43961;52.940;6.834;2024-03-23T10:46:01;8.30;99.90
57026;DHT22;43961;52.940;6.834;2024-03-23T10:48:27;8.50;99.90
57026;DHT22;43961;52.940;6.834;2024-03-23T10:50:54;8.80;99.90
57026;DHT22;43961;52.940;6.834;2024-03-23T10:53:22;9.10;99.90
57026;DHT22;43961;52.940;6.834;2024-03-23T10:55:51;9.40;99.90
57026;DHT22;43961;52.940;6.834;2024-03-23T10:58:20;9.60;99.90
57026;DHT22;43961;52.940;6.834;2024-03-23T11:00:47;9.90;99.90
57026;DHT22;43961;52.940;6.834;2024-03-23T11:05:58;10.40;99.90
57026;DHT22;43961;52.940;6.834;2024-03-23T11:08:50;10.50;99.90
57026;DHT22;43961;52.940;6.834;2024-03-23T11:11:21;10.60;99.90
57026;DHT22;43961;52.940;6.834;2024-03-23T11:13:52;10.70;99.90
57026;DHT22;43961;52.940;6.834;2024-03-23T11:18:49;10.20;99.90
57026;DHT22;43961;52.940;6.834;2024-03-23T11:21:55;9.80;99.90
57026;DHT22;43961;52.940;6.834;2024-03-23T11:24:21;9.40;99.90
57026;DHT22;43961;52.940;6.834;2024-03-23T11:26:48;9.10;99.90
57026;DHT22;43961;52.940;6.834;2024-03-23T11:29:15;9.00;99.90
57026;DHT22;43961;52.940;6.834;2024-03-23T11:31:47;9.00;99.90
57026;DHT22;43961;52.940;6.834;2024-03-23T11:34:15;9.00;99.90
57026;DHT22;43961;52.940;6.834;2024-03-23T11:36:41;8.90;99.90
57026;DHT22;43961;52.940;6.834;2024-03-23T11:39:15;8.90;99.90
57026;DHT22;43961;52.940;6.834;2024-03-23T11:41:53;9.00;99.90
57026;DHT22;43961;52.940;6.834;2024-03-23T11:44:25;9.10;99.90
57026;DHT22;43961;52.940;6.834;2024-03-23T11:46:51;9.40;99.90
57026;DHT22;43961;52.940;6.834;2024-03-23T11:49:27;9.50;99.90
57026;DHT22;43961;52.940;6.834;2024-03-23T11:51:54;9.70;99.90
57026;DHT22;43961;52.940;6.834;2024-03-23T11:54:24;9.90;99.90
57026;DHT22;43961;52.940;6.834;2024-03-23T11:56:58;10.10;99.90
57026;DHT22;43961;52.940;6.834;2024-03-23T11:59:35;10.30;99.90
57026;DHT22;43961;52.940;6.834;2024-03-23T12:02:05;10.50;99.90
57026;DHT22;43961;52.940;6.834;2024-03-23T12:04:31;10.60;99.90
57026;DHT22;43961;52.940;6.834;2024-03-23T12:07:16;10.80;99.90
57026;DHT22;43961;52.940;6.834;2024-03-23T12:09:46;11.00;99.90
57026;DHT22;43961;52.940;6.834;2024-03-23T12:12:16;11.20;99.90
57026;DHT22;43961;52.940;6.834;2024-03-23T12:15:04;11.40;99.90
57026;DHT22;43961;52.940;6.834;2024-03-23T12:17:31;11.50;99.90
57026;DHT22;43961;52.940;6.834;2024-03-23T12:19:57;11.50;99.90
57026;DHT22;43961;52.940;6.834;2024-03-23T12:22:24;11.50;99.90
57026;DHT22;43961;52.940;6.834;2024-03-23T12:24:49;11.40;99.90
57026;DHT22;43961;52.940;6.834;2024-03-23T12:27:15;11.10;99.90
57026;DHT22;43961;52.940;6.834;2024-03-23T12:29:41;10.70;99.90
57026;DHT22;43961;52.940;6.834;2024-03-23T12:32:08;10.40;99.90
57026;DHT22;43961;52.940;6.834;2024-03-23T12:34:34;10.20;99.90
57026;DHT22;43961;52.940;6.834;2024-03-23T12:37:00;10.20;99.90
57026;DHT22;43961;52.940;6.834;2024-03-23T12:39:27;10.30;99.90
57026;DHT22;43961;52.940;6.834;2024-03-23T12:41:53;10.40;99.90
57026;DHT22;43961;52.940;6.834;2024-03-23T12:44:19;10.60;99.90
57026;DHT22;43961;52.940;6.834;2024-03-23T12:46:45;10.70;99.90
57026;DHT22;43961;52.940;6.834;2024-03-23T12:49:11;10.90;99.90
57026;DHT22;43961;52.940;6.834;2024-03-23T12:51:37;10.90;99.90
57026;DHT22;43961;52.940;6.834;2024-03-23T12:54:03;10.90;99.90
57026;DHT22;43961;52.940;6.834;2024-03-23T12:56:29;10.90;99.90
57026;DHT22;43961;52.940;6.834;2024-03-23T12:58:55;11.00;99.90
57026;DHT22;43961;52.940;6.834;2024-03-23T13:01:23;11.10;99.90
57026;DHT22;43961;52.940;6.834;2024-03-23T13:03:50;11.30;99.90
57026;DHT22;43961;52.940;6.834;2024-03-23T13:06:16;11.30;99.90
57026;DHT22;43961;52.940;6.834;2024-03-23T13:08:47;11.50;99.90
57026;DHT22;43961;52.940;6.834;2024-03-23T13:11:15;11.50;99.90
57026;DHT22;43961;52.940;6.834;2024-03-23T13:13:41;11.60;99.90
57026;DHT22;43961;52.940;6.834;2024-03-23T13:16:07;11.70;99.90
57026;DHT22;43961;52.940;6.834;2024-03-23T13:18:33;11.80;99.90
57026;DHT22;43961;52.940;6.834;2024-03-23T13:20:59;11.80;99.90
57026;DHT22;43961;52.940;6.834;2024-03-23T13:23:25;11.70;99.90
57026;DHT22;43961;52.940;6.834;2024-03-23T13:25:52;11.50;99.90
57026;DHT22;43961;52.940;6.834;2024-03-23T13:28:24;11.40;99.90
57026;DHT22;43961;52.940;6.834;2024-03-23T13:30:51;11.10;99.90
57026;DHT22;43961;52.940;6.834;2024-03-23T13:33:16;10.90;99.90
57026;DHT22;43961;52.940;6.834;2024-03-23T13:35:55;10.80;99.90
57026;DHT22;43961;52.940;6.834;2024-03-23T13:38:22;10.70;99.90
57026;DHT22;43961;52.940;6.834;2024-03-23T13:40:57;10.60;99.90
57026;DHT22;43961;52.940;6.834;2024-03-23T13:43:25;10.40;99.90
57026;DHT22;43961;52.940;6.834;2024-03-23T13:45:55;10.30;99.90
57026;DHT22;43961;52.940;6.834;2024-03-23T13:48:22;10.20;99.90
57026;DHT22;43961;52.940;6.834;2024-03-23T13:50:56;10.00;99.90
57026;DHT22;43961;52.940;6.834;2024-03-23T13:53:22;9.90;99.90
57026;DHT22;43961;52.940;6.834;2024-03-23T13:55:49;9.60;99.90
57026;DHT22;43961;52.940;6.834;2024-03-23T13:58:15;9.40;99.90
57026;DHT22;43961;52.940;6.834;2024-03-23T14:00:41;9.30;99.90
57026;DHT22;43961;52.940;6.834;2024-03-23T14:03:11;9.30;99.90
57026;DHT22;43961;52.940;6.834;2024-03-23T14:05:37;9.30;99.90
57026;DHT22;43961;52.940;6.834;2024-03-23T14:08:06;9.40;99.90
57026;DHT22;43961;52.940;6.834;2024-03-23T14:10:32;9.30;99.90
57026;DHT22;43961;52.940;6.834;2024-03-23T14:12:58;9.20;99.90
57026;DHT22;43961;52.940;6.834;2024-03-23T14:15:27;9.20;99.90
57026;DHT22;43961;52.940;6.834;2024-03-23T14:17:52;9.00;99.90
57026;DHT22;43961;52.940;6.834;2024-03-23T14:20:20;9.00;99.90
57026;DHT22;43961;52.940;6.834;2024-03-23T14:22:46;8.90;99.90
57026;DHT22;43961;52.940;6.834;2024-03-23T14:25:12;8.80;99.90
57026;DHT22;43961;52.940;6.834;2024-03-23T14:27:37;8.80;99.90
57026;DHT22;43961;52.940;6.834;2024-03-23T14:30:04;8.70;99.90
57026;DHT22;43961;52.940;6.834;2024-03-23T14:32:32;8.70;99.90
57026;DHT22;43961;52.940;6.834;2024-03-23T14:35:01;8.70;99.90
57026;DHT22;43961;52.940;6.834;2024-03-23T14:37:26;8.60;99.90
57026;DHT22;43961;52.940;6.834;2024-03-23T14:39:52;8.60;99.90
57026;DHT22;43961;52.940;6.834;2024-03-23T14:42:17;8.60;99.90
57026;DHT22;43961;52.940;6.834;2024-03-23T14:44:43;8.70;99.90
57026;DHT22;43961;52.940;6.834;2024-03-23T14:47:09;8.70;99.90
57026;DHT22;43961;52.940;6.834;2024-03-23T14:49:34;8.70;99.90
57026;DHT22;43961;52.940;6.834;2024-03-23T14:52:00;8.70;99.90
57026;DHT22;43961;52.940;6.834;2024-03-23T14:54:25;8.60;99.90
57026;DHT22;43961;52.940;6.834;2024-03-23T14:56:52;8.60;99.90
57026;DHT22;43961;52.940;6.834;2024-03-23T14:59:17;8.70;99.90
57026;DHT22;43961;52.940;6.834;2024-03-23T15:01:45;8.70;99.90
57026;DHT22;43961;52.940;6.834;2024-03-23T15:04:10;8.60;99.90
57026;DHT22;43961;52.940;6.834;2024-03-23T15:06:36;8.70;99.90
57026;DHT22;43961;52.940;6.834;2024-03-23T15:09:02;8.70;99.90
57026;DHT22;43961;52.940;6.834;2024-03-23T15:11:32;8.70;99.90
57026;DHT22;43961;52.940;6.834;2024-03-23T15:13:58;8.70;99.90
57026;DHT22;43961;52.940;6.834;2024-03-23T15:16:23;8.60;99.90
57026;DHT22;43961;52.940;6.834;2024-03-23T15:18:49;8.50;99.90
57026;DHT22;43961;52.940;6.834;2024-03-23T15:21:15;8.40;99.90
57026;DHT22;43961;52.940;6.834;2024-03-23T15:23:46;8.30;99.90
57026;DHT22;43961;52.940;6.834;2024-03-23T15:26:11;8.30;99.90
57026;DHT22;43961;52.940;6.834;2024-03-23T15:28:37;8.30;99.90
57026;DHT22;43961;52.940;6.834;2024-03-23T15:31:04;8.30;99.90
57026;DHT22;43961;52.940;6.834;2024-03-23T15:33:30;8.30;99.90
57026;DHT22;43961;52.940;6.834;2024-03-23T15:36:05;8.30;99.90
57026;DHT22;43961;52.940;6.834;2024-03-23T15:38:34;8.30;99.90
57026;DHT22;43961;52.940;6.834;2024-03-23T15:40:59;8.20;99.90
57026;DHT22;43961;52.940;6.834;2024-03-23T15:43:26;8.20;99.90
57026;DHT22;43961;52.940;6.834;2024-03-23T15:46:00;8.20;99.90
57026;DHT22;43961;52.940;6.834;2024-03-23T15:48:30;8.20;99.90
57026;DHT22;43961;52.940;6.834;2024-03-23T15:50:58;8.20;99.90
57026;DHT22;43961;52.940;6.834;2024-03-23T15:53:25;8.20;99.90
57026;DHT22;43961;52.940;6.834;2024-03-23T15:56:00;8.20;99.90
57026;DHT22;43961;52.940;6.834;2024-03-23T15:58:29;8.20;99.90
57026;DHT22;43961;52.940;6.834;2024-03-23T16:00:55;8.20;99.90
57026;DHT22;43961;52.940;6.834;2024-03-23T16:03:21;8.10;99.90
57026;DHT22;43961;52.940;6.834;2024-03-23T16:05:54;8.10;99.90
57026;DHT22;43961;52.940;6.834;2024-03-23T16:08:20;8.10;99.90
57026;DHT22;43961;52.940;6.834;2024-03-23T16:10:46;8.00;99.90
57026;DHT22;43961;52.940;6.834;2024-03-23T16:13:12;8.00;99.90
57026;DHT22;43961;52.940;6.834;2024-03-23T16:15:39;7.90;99.90
57026;DHT22;43961;52.940;6.834;2024-03-23T16:18:05;7.90;99.90
57026;DHT22;43961;52.940;6.834;2024-03-23T16:20:31;7.90;99.90
57026;DHT22;43961;52.940;6.834;2024-03-23T16:22:59;7.80;99.90
57026;DHT22;43961;52.940;6.834;2024-03-23T16:25:25;7.80;99.90
57026;DHT22;43961;52.940;6.834;2024-03-23T16:27:50;7.80;99.90
57026;DHT22;43961;52.940;6.834;2024-03-23T16:30:16;7.80;99.90
57026;DHT22;43961;52.940;6.834;2024-03-23T16:32:42;7.70;99.90
57026;DHT22;43961;52.940;6.834;2024-03-23T16:35:07;7.70;99.90
57026;DHT22;43961;52.940;6.834;2024-03-23T16:37:35;7.60;99.90
57026;DHT22;43961;52.940;6.834;2024-03-23T16:40:01;7.60;99.90
57026;DHT22;43961;52.940;6.834;2024-03-23T16:42:27;7.50;99.90
57026;DHT22;43961;52.940;6.834;2024-03-23T16:44:52;7.50;99.90
57026;DHT22;43961;52.940;6.834;2024-03-23T16:47:18;7.40;99.90